UAE42 EDDM-OMDB
Flight info
| Callsign | UAE42 |
|---|---|
| Flight time | N/A |
| Altitude | 42000 |
| Route | VAVOR3E/08R VAVOR M867 RADIZ GIMIX EPODO DABAR SIRMI REMPI TIKSA VAKSU RODON DIMIS IPTES UL604 SALUN N705 MMA P751 DASUM Y234 FYM M872 BDB Y214 RAPMA KUVSO KATIT PEKEM M628 RIGIL G783 ASPED Q308 KIPOK Q568 IMPED IMPE3C |
| Aircraft | A359/H-V/N |
Departure
| Time | N/A |
|---|---|
| Airport | Munich Airport (EDDM) |
Arrival
| Time | 2026-04-21 18:21 |
|---|---|
| Airport | Dubai International Airport (OMDB) |
| Time | Latitude | Longitude | Altitude | Speed | Heading |
|---|---|---|---|---|---|
| 2026-04-21 16:13 | 25.43609 | 37.98014 | 41860 ft | 587 kts | 125° |
| 2026-04-21 16:13 | 25.39636 | 38.05886 | 41849 ft | 586 kts | 125° |
| 2026-04-21 16:14 | 25.35657 | 38.13741 | 41846 ft | 586 kts | 125° |
| 2026-04-21 16:14 | 25.31692 | 38.21558 | 41846 ft | 586 kts | 125° |
| 2026-04-21 16:15 | 25.27700 | 38.29417 | 41846 ft | 587 kts | 125° |
| 2026-04-21 16:15 | 25.23699 | 38.37283 | 41845 ft | 587 kts | 125° |
| 2026-04-21 16:16 | 25.19700 | 38.45132 | 41846 ft | 587 kts | 125° |
| 2026-04-21 16:16 | 25.15693 | 38.52981 | 41849 ft | 587 kts | 125° |
| 2026-04-21 16:17 | 25.11680 | 38.60820 | 41859 ft | 587 kts | 125° |
| 2026-04-21 16:17 | 25.07658 | 38.68654 | 41855 ft | 587 kts | 126° |
| 2026-04-21 16:18 | 25.03632 | 38.76486 | 41846 ft | 587 kts | 125° |
| 2026-04-21 16:18 | 24.99610 | 38.84301 | 41852 ft | 586 kts | 125° |
| 2026-04-21 16:19 | 24.95585 | 38.92111 | 41861 ft | 586 kts | 125° |
| 2026-04-21 16:19 | 24.91557 | 38.99916 | 41869 ft | 585 kts | 125° |
| 2026-04-21 16:20 | 24.87521 | 39.07697 | 41862 ft | 585 kts | 125° |
| 2026-04-21 16:20 | 24.83479 | 39.15481 | 41869 ft | 585 kts | 125° |
| 2026-04-21 16:21 | 24.79447 | 39.23249 | 41868 ft | 584 kts | 125° |
| 2026-04-21 16:21 | 24.75410 | 39.31011 | 41868 ft | 584 kts | 125° |
| 2026-04-21 16:22 | 24.71369 | 39.38759 | 41879 ft | 584 kts | 125° |
| 2026-04-21 16:22 | 24.67335 | 39.46489 | 41879 ft | 583 kts | 125° |
| 2026-04-21 16:23 | 24.63297 | 39.54210 | 41882 ft | 582 kts | 125° |
| 2026-04-21 16:23 | 24.59263 | 39.61911 | 41884 ft | 582 kts | 125° |
| 2026-04-21 16:24 | 24.55556 | 39.69858 | 41884 ft | 590 kts | 112° |
| 2026-04-21 16:24 | 24.54496 | 39.74219 | 41888 ft | 594 kts | 100° |
| 2026-04-21 16:24 | 24.53880 | 39.78716 | 41881 ft | 595 kts | 98° |
| 2026-04-21 16:25 | 24.52977 | 39.87752 | 41883 ft | 596 kts | 96° |
| 2026-04-21 16:25 | 24.52187 | 39.96806 | 41883 ft | 596 kts | 96° |
| 2026-04-21 16:26 | 24.51354 | 40.05860 | 41881 ft | 595 kts | 97° |
| 2026-04-21 16:26 | 24.50476 | 40.14896 | 41879 ft | 595 kts | 97° |
| 2026-04-21 16:27 | 24.49582 | 40.23932 | 41875 ft | 595 kts | 97° |
| 2026-04-21 16:27 | 24.48690 | 40.32907 | 41872 ft | 595 kts | 97° |
| 2026-04-21 16:28 | 24.47791 | 40.41939 | 41871 ft | 595 kts | 97° |
| 2026-04-21 16:28 | 24.46886 | 40.50971 | 41868 ft | 595 kts | 97° |
| 2026-04-21 16:29 | 24.45978 | 40.59992 | 41867 ft | 595 kts | 97° |
| 2026-04-21 16:29 | 24.45062 | 40.69024 | 41870 ft | 595 kts | 97° |
| 2026-04-21 16:30 | 24.44140 | 40.78043 | 41867 ft | 595 kts | 97° |
| 2026-04-21 16:30 | 24.43213 | 40.87056 | 41862 ft | 595 kts | 97° |
| 2026-04-21 16:31 | 24.42280 | 40.96071 | 41868 ft | 594 kts | 97° |
| 2026-04-21 16:31 | 24.41343 | 41.05083 | 41863 ft | 594 kts | 97° |
| 2026-04-21 16:32 | 24.40407 | 41.14086 | 41863 ft | 593 kts | 97° |
| 2026-04-21 16:32 | 24.39461 | 41.23077 | 41864 ft | 593 kts | 97° |
| 2026-04-21 16:33 | 24.38511 | 41.32042 | 41866 ft | 593 kts | 97° |
| 2026-04-21 16:33 | 24.37554 | 41.41041 | 41862 ft | 593 kts | 97° |
| 2026-04-21 16:34 | 24.36594 | 41.50030 | 41863 ft | 593 kts | 97° |
| 2026-04-21 16:34 | 24.35628 | 41.59018 | 41857 ft | 593 kts | 97° |
| 2026-04-21 16:35 | 24.34659 | 41.67987 | 41858 ft | 593 kts | 97° |
| 2026-04-21 16:35 | 24.33684 | 41.76961 | 41855 ft | 593 kts | 97° |
| 2026-04-21 16:36 | 24.32169 | 41.85817 | 41848 ft | 591 kts | 107° |
| 2026-04-21 16:36 | 24.29982 | 41.94491 | 41844 ft | 590 kts | 108° |
| 2026-04-21 16:37 | 24.27685 | 42.03118 | 41841 ft | 590 kts | 108° |
| 2026-04-21 16:37 | 24.25398 | 42.11680 | 41838 ft | 590 kts | 108° |
| 2026-04-21 16:38 | 24.23109 | 42.20305 | 41836 ft | 589 kts | 108° |
| 2026-04-21 16:38 | 24.20824 | 42.28930 | 41833 ft | 589 kts | 108° |
| 2026-04-21 16:39 | 24.18539 | 42.37537 | 41830 ft | 588 kts | 108° |
| 2026-04-21 16:39 | 24.16248 | 42.46137 | 41828 ft | 588 kts | 108° |
| 2026-04-21 16:40 | 24.13952 | 42.54731 | 41825 ft | 588 kts | 108° |
| 2026-04-21 16:40 | 24.11656 | 42.63306 | 41824 ft | 587 kts | 108° |
| 2026-04-21 16:41 | 24.09745 | 42.70429 | 41822 ft | 587 kts | 108° |
| 2026-04-21 16:41 | 24.07056 | 42.80424 | 41823 ft | 586 kts | 108° |
| 2026-04-21 16:42 | 24.04750 | 42.88975 | 41826 ft | 586 kts | 108° |
| 2026-04-21 16:42 | 24.02441 | 42.97524 | 41825 ft | 586 kts | 108° |
| 2026-04-21 16:43 | 24.00138 | 43.06006 | 41814 ft | 585 kts | 108° |
| 2026-04-21 16:43 | 23.97821 | 43.14529 | 41825 ft | 584 kts | 108° |
| 2026-04-21 16:44 | 23.95502 | 43.23042 | 41824 ft | 584 kts | 108° |
| 2026-04-21 16:44 | 23.93178 | 43.31559 | 41826 ft | 585 kts | 108° |
| 2026-04-21 16:45 | 23.90846 | 43.40079 | 41828 ft | 585 kts | 108° |
| 2026-04-21 16:45 | 23.88510 | 43.48596 | 41828 ft | 586 kts | 108° |
| 2026-04-21 16:46 | 23.86164 | 43.57127 | 41830 ft | 586 kts | 108° |
| 2026-04-21 16:46 | 23.83813 | 43.65654 | 41832 ft | 587 kts | 108° |
| 2026-04-21 16:47 | 23.81451 | 43.74202 | 41833 ft | 588 kts | 108° |
| 2026-04-21 16:47 | 23.79084 | 43.82751 | 41837 ft | 589 kts | 108° |
| 2026-04-21 16:48 | 23.77270 | 43.91452 | 41844 ft | 589 kts | 96° |
| 2026-04-21 16:48 | 23.76465 | 44.00364 | 41844 ft | 590 kts | 94° |
| 2026-04-21 16:49 | 23.75830 | 44.09293 | 41845 ft | 590 kts | 93° |
| 2026-04-21 16:49 | 23.75201 | 44.18213 | 41847 ft | 590 kts | 93° |
| 2026-04-21 16:50 | 23.74544 | 44.27077 | 41853 ft | 590 kts | 93° |
| 2026-04-21 16:50 | 23.73864 | 44.35991 | 41855 ft | 589 kts | 93° |
| 2026-04-21 16:51 | 23.73178 | 44.44904 | 41859 ft | 589 kts | 93° |
| 2026-04-21 16:51 | 23.72488 | 44.53809 | 41866 ft | 589 kts | 94° |
| 2026-04-21 16:52 | 23.71793 | 44.62726 | 41867 ft | 590 kts | 94° |
| 2026-04-21 16:52 | 23.71208 | 44.70194 | 41866 ft | 589 kts | 94° |
| 2026-04-21 16:53 | 23.70389 | 44.80550 | 41869 ft | 589 kts | 94° |
| 2026-04-21 16:53 | 23.69680 | 44.89458 | 41872 ft | 589 kts | 94° |
| 2026-04-21 16:54 | 23.68966 | 44.98364 | 41866 ft | 589 kts | 94° |
| 2026-04-21 16:54 | 23.68245 | 45.07267 | 41865 ft | 589 kts | 94° |
| 2026-04-21 16:55 | 23.67643 | 45.14667 | 41859 ft | 590 kts | 94° |
| 2026-04-21 16:55 | 23.66913 | 45.23590 | 41852 ft | 591 kts | 94° |
| 2026-04-21 16:56 | 23.66179 | 45.32527 | 41845 ft | 592 kts | 94° |
| 2026-04-21 16:56 | 23.65434 | 45.41466 | 41830 ft | 593 kts | 94° |
| 2026-04-21 16:57 | 23.64682 | 45.50430 | 41818 ft | 593 kts | 94° |
| 2026-04-21 16:57 | 23.63928 | 45.59386 | 41815 ft | 593 kts | 94° |
| 2026-04-21 16:58 | 23.63173 | 45.68346 | 41806 ft | 594 kts | 94° |
| 2026-04-21 16:58 | 23.62406 | 45.77306 | 41797 ft | 594 kts | 95° |
| 2026-04-21 16:59 | 23.61630 | 45.86277 | 41797 ft | 594 kts | 95° |
| 2026-04-21 16:59 | 23.60852 | 45.95231 | 41797 ft | 594 kts | 95° |
| 2026-04-21 17:00 | 23.60070 | 46.04188 | 41799 ft | 593 kts | 95° |
| 2026-04-21 17:00 | 23.59418 | 46.11620 | 41795 ft | 592 kts | 95° |
| 2026-04-21 17:01 | 23.58495 | 46.22061 | 41800 ft | 591 kts | 95° |
| 2026-04-21 17:01 | 23.57702 | 46.30969 | 41807 ft | 590 kts | 95° |
| 2026-04-21 17:02 | 23.56906 | 46.39864 | 41808 ft | 589 kts | 95° |
| 2026-04-21 17:02 | 23.56105 | 46.48749 | 41815 ft | 589 kts | 95° |
| 2026-04-21 17:03 | 23.55300 | 46.57630 | 41805 ft | 588 kts | 94° |
| 2026-04-21 17:03 | 23.54491 | 46.66485 | 41806 ft | 588 kts | 94° |
| 2026-04-21 17:04 | 23.53682 | 46.75293 | 41803 ft | 588 kts | 94° |
| 2026-04-21 17:04 | 23.52861 | 46.84163 | 41798 ft | 588 kts | 94° |
| 2026-04-21 17:05 | 23.52036 | 46.93024 | 41793 ft | 588 kts | 94° |
| 2026-04-21 17:05 | 23.51207 | 47.01875 | 41795 ft | 587 kts | 94° |
| 2026-04-21 17:06 | 23.50374 | 47.10717 | 41797 ft | 586 kts | 94° |
| 2026-04-21 17:06 | 23.49537 | 47.19549 | 41802 ft | 585 kts | 94° |
| 2026-04-21 17:07 | 23.48696 | 47.28367 | 41805 ft | 585 kts | 94° |
| 2026-04-21 17:07 | 23.47851 | 47.37175 | 41812 ft | 585 kts | 94° |
| 2026-04-21 17:08 | 23.47001 | 47.45983 | 41817 ft | 584 kts | 94° |
| 2026-04-21 17:08 | 23.46148 | 47.54779 | 41819 ft | 584 kts | 94° |
| 2026-04-21 17:09 | 23.44857 | 47.67989 | 41823 ft | 585 kts | 94° |
| 2026-04-21 17:09 | 23.43989 | 47.76801 | 41824 ft | 585 kts | 94° |
| 2026-04-21 17:10 | 23.43118 | 47.85596 | 41825 ft | 585 kts | 94° |
| 2026-04-21 17:10 | 23.42240 | 47.94404 | 41827 ft | 585 kts | 94° |
| 2026-04-21 17:11 | 23.41358 | 48.03206 | 41827 ft | 584 kts | 94° |
| 2026-04-21 17:11 | 23.40472 | 48.11996 | 41826 ft | 584 kts | 94° |
| 2026-04-21 17:12 | 23.39584 | 48.20765 | 41828 ft | 583 kts | 94° |
| 2026-04-21 17:12 | 23.38691 | 48.29531 | 41826 ft | 582 kts | 94° |
| 2026-04-21 17:13 | 23.37856 | 48.38283 | 41834 ft | 580 kts | 91° |
| 2026-04-21 17:13 | 23.37517 | 48.47033 | 41828 ft | 578 kts | 88° |
| 2026-04-21 17:14 | 23.37299 | 48.55783 | 41829 ft | 578 kts | 89° |
| 2026-04-21 17:14 | 23.37000 | 48.64524 | 41835 ft | 578 kts | 89° |
| 2026-04-21 17:15 | 23.36643 | 48.73209 | 41834 ft | 578 kts | 90° |
| 2026-04-21 17:15 | 23.36265 | 48.81950 | 41835 ft | 578 kts | 90° |
| 2026-04-21 17:16 | 23.35886 | 48.90699 | 41835 ft | 579 kts | 90° |
| 2026-04-21 17:16 | 23.35506 | 48.99441 | 41823 ft | 579 kts | 90° |
| 2026-04-21 17:17 | 23.34907 | 49.08178 | 41831 ft | 581 kts | 96° |
| 2026-04-21 17:17 | 23.33753 | 49.16875 | 41818 ft | 581 kts | 98° |
| 2026-04-21 17:18 | 23.32491 | 49.25562 | 41818 ft | 581 kts | 99° |
| 2026-04-21 17:18 | 23.31217 | 49.34238 | 41810 ft | 580 kts | 99° |
| 2026-04-21 17:19 | 23.29956 | 49.42896 | 41822 ft | 579 kts | 99° |
| 2026-04-21 17:19 | 23.28698 | 49.51553 | 41828 ft | 579 kts | 98° |
| 2026-04-21 17:20 | 23.27438 | 49.60191 | 41817 ft | 578 kts | 98° |
| 2026-04-21 17:20 | 23.26175 | 49.68822 | 41820 ft | 577 kts | 98° |
| 2026-04-21 17:21 | 23.24907 | 49.77439 | 41818 ft | 577 kts | 98° |
| 2026-04-21 17:21 | 23.23635 | 49.86053 | 41816 ft | 577 kts | 98° |
| 2026-04-21 17:22 | 23.22361 | 49.94653 | 41822 ft | 576 kts | 99° |
| 2026-04-21 17:22 | 23.21082 | 50.03247 | 41821 ft | 576 kts | 98° |
| 2026-04-21 17:23 | 23.19800 | 50.11831 | 41817 ft | 575 kts | 99° |
| 2026-04-21 17:23 | 23.18515 | 50.20402 | 41818 ft | 574 kts | 99° |
| 2026-04-21 17:24 | 23.17234 | 50.28915 | 41822 ft | 574 kts | 98° |
| 2026-04-21 17:24 | 23.15933 | 50.37523 | 41820 ft | 574 kts | 99° |
| 2026-04-21 17:25 | 23.14645 | 50.46019 | 41822 ft | 573 kts | 99° |
| 2026-04-21 17:25 | 23.13345 | 50.54563 | 41822 ft | 573 kts | 99° |
| 2026-04-21 17:26 | 23.12041 | 50.63095 | 41822 ft | 573 kts | 99° |
| 2026-04-21 17:26 | 23.10733 | 50.71626 | 41822 ft | 572 kts | 99° |
| 2026-04-21 17:27 | 23.09421 | 50.80150 | 41820 ft | 572 kts | 99° |
| 2026-04-21 17:27 | 23.08105 | 50.88670 | 41820 ft | 572 kts | 99° |
| 2026-04-21 17:28 | 23.06785 | 50.97183 | 41819 ft | 571 kts | 99° |
| 2026-04-21 17:28 | 23.05461 | 51.05688 | 41823 ft | 571 kts | 99° |
| 2026-04-21 17:29 | 23.04134 | 51.14188 | 41819 ft | 571 kts | 99° |
| 2026-04-21 17:29 | 23.02803 | 51.22684 | 41820 ft | 570 kts | 99° |
| 2026-04-21 17:30 | 23.01468 | 51.31165 | 41817 ft | 570 kts | 99° |
| 2026-04-21 17:30 | 23.00130 | 51.39644 | 41817 ft | 570 kts | 99° |
| 2026-04-21 17:31 | 22.98787 | 51.48117 | 41811 ft | 569 kts | 99° |
| 2026-04-21 17:31 | 22.97441 | 51.56582 | 41812 ft | 569 kts | 99° |
| 2026-04-21 17:32 | 22.96091 | 51.65040 | 41808 ft | 569 kts | 99° |
| 2026-04-21 17:32 | 22.94737 | 51.73497 | 41806 ft | 569 kts | 99° |
| 2026-04-21 17:33 | 22.93390 | 51.81886 | 41805 ft | 568 kts | 99° |
| 2026-04-21 17:33 | 22.92030 | 51.90322 | 41801 ft | 568 kts | 99° |
| 2026-04-21 17:34 | 22.90666 | 51.98752 | 41806 ft | 567 kts | 99° |
| 2026-04-21 17:34 | 22.89298 | 52.07179 | 41799 ft | 567 kts | 99° |
| 2026-04-21 17:35 | 22.87926 | 52.15598 | 41793 ft | 567 kts | 99° |
| 2026-04-21 17:35 | 22.86541 | 52.24070 | 41795 ft | 567 kts | 99° |
| 2026-04-21 17:36 | 22.85171 | 52.32421 | 41795 ft | 566 kts | 99° |
| 2026-04-21 17:36 | 22.83789 | 52.40821 | 41794 ft | 566 kts | 99° |
| 2026-04-21 17:37 | 22.82557 | 52.49229 | 41792 ft | 564 kts | 91° |
| 2026-04-21 17:37 | 22.82185 | 52.57701 | 41790 ft | 563 kts | 90° |
| 2026-04-21 17:38 | 22.81971 | 52.66171 | 41791 ft | 562 kts | 89° |
| 2026-04-21 17:38 | 22.81777 | 52.74637 | 41785 ft | 562 kts | 89° |
| 2026-04-21 17:39 | 22.81562 | 52.83095 | 41787 ft | 561 kts | 90° |
| 2026-04-21 17:39 | 22.81333 | 52.91553 | 41784 ft | 561 kts | 90° |
| 2026-04-21 17:40 | 22.81097 | 52.99994 | 41790 ft | 560 kts | 90° |
| 2026-04-21 17:40 | 22.80858 | 53.08429 | 41793 ft | 560 kts | 90° |
| 2026-04-21 17:41 | 22.80615 | 53.16859 | 41786 ft | 559 kts | 90° |
| 2026-04-21 17:41 | 22.80369 | 53.25283 | 41788 ft | 559 kts | 90° |
| 2026-04-21 17:42 | 22.80160 | 53.32277 | 41793 ft | 559 kts | 90° |
| 2026-04-21 17:42 | 22.79905 | 53.40683 | 41787 ft | 558 kts | 90° |
| 2026-04-21 17:43 | 22.79646 | 53.49092 | 41781 ft | 558 kts | 90° |
| 2026-04-21 17:43 | 22.79383 | 53.57494 | 41786 ft | 558 kts | 90° |
| 2026-04-21 17:44 | 22.79115 | 53.65896 | 41794 ft | 558 kts | 90° |
| 2026-04-21 17:44 | 22.78843 | 53.74293 | 41796 ft | 558 kts | 90° |
| 2026-04-21 17:45 | 22.78567 | 53.82696 | 41775 ft | 558 kts | 90° |
| 2026-04-21 17:45 | 22.78286 | 53.91092 | 41778 ft | 557 kts | 90° |
| 2026-04-21 17:46 | 22.78252 | 53.99459 | 41778 ft | 553 kts | 81° |
| 2026-04-21 17:46 | 22.79603 | 54.07619 | 41776 ft | 549 kts | 74° |
| 2026-04-21 17:47 | 22.81245 | 54.15690 | 41779 ft | 549 kts | 73° |
| 2026-04-21 17:47 | 22.82923 | 54.23758 | 41779 ft | 548 kts | 73° |
| 2026-04-21 17:48 | 22.84573 | 54.31820 | 41784 ft | 548 kts | 73° |
| 2026-04-21 17:48 | 22.86204 | 54.39886 | 41789 ft | 548 kts | 73° |
| 2026-04-21 17:49 | 22.87826 | 54.47953 | 41783 ft | 547 kts | 74° |
| 2026-04-21 17:49 | 22.89445 | 54.56019 | 41787 ft | 547 kts | 74° |
| 2026-04-21 17:50 | 22.91049 | 54.64032 | 41785 ft | 547 kts | 74° |
| 2026-04-21 17:50 | 22.92670 | 54.72148 | 41786 ft | 547 kts | 74° |
| 2026-04-21 17:51 | 22.94264 | 54.80157 | 41788 ft | 547 kts | 74° |
| 2026-04-21 17:51 | 22.95867 | 54.88226 | 41794 ft | 547 kts | 74° |
| 2026-04-21 17:52 | 22.97464 | 54.96292 | 41791 ft | 547 kts | 74° |
| 2026-04-21 17:52 | 22.99055 | 55.04350 | 41788 ft | 546 kts | 74° |
| 2026-04-21 17:53 | 23.00722 | 55.12380 | 41792 ft | 543 kts | 69° |
| 2026-04-21 17:53 | 23.03921 | 55.19637 | 41789 ft | 526 kts | 48° |
| 2026-04-21 17:54 | 23.06270 | 55.22623 | 41794 ft | 516 kts | 37° |
| 2026-04-21 17:54 | 23.09010 | 55.25055 | 41801 ft | 505 kts | 27° |
| 2026-04-21 17:54 | 23.15270 | 55.28123 | 41800 ft | 486 kts | 7° |
| 2026-04-21 17:55 | 23.21835 | 55.29864 | 41800 ft | 487 kts | 8° |
| 2026-04-21 17:55 | 23.28405 | 55.31704 | 41800 ft | 488 kts | 8° |
| 2026-04-21 17:56 | 23.34981 | 55.33599 | 41804 ft | 489 kts | 8° |
| 2026-04-21 17:56 | 23.41549 | 55.35531 | 41807 ft | 489 kts | 9° |
| 2026-04-21 17:57 | 23.48103 | 55.37474 | 41687 ft | 485 kts | 8° |
| 2026-04-21 17:57 | 23.51340 | 55.38438 | 41443 ft | 479 kts | 8° |
| 2026-04-21 17:57 | 23.54546 | 55.39390 | 41203 ft | 475 kts | 8° |
| 2026-04-21 17:58 | 23.57732 | 55.40332 | 40959 ft | 475 kts | 8° |
| 2026-04-21 17:58 | 23.60927 | 55.41275 | 40723 ft | 476 kts | 8° |
| 2026-04-21 17:58 | 23.64121 | 55.42219 | 40474 ft | 476 kts | 8° |
| 2026-04-21 17:58 | 23.67315 | 55.43164 | 40084 ft | 475 kts | 8° |
| 2026-04-21 17:59 | 23.70464 | 55.44097 | 39438 ft | 476 kts | 8° |
| 2026-04-21 17:59 | 23.73704 | 55.45058 | 38804 ft | 476 kts | 7° |
| 2026-04-21 17:59 | 23.76860 | 55.45994 | 38124 ft | 477 kts | 7° |
| 2026-04-21 17:59 | 23.80061 | 55.46942 | 37457 ft | 476 kts | 8° |
| 2026-04-21 18:00 | 23.83251 | 55.47888 | 36823 ft | 476 kts | 8° |
| 2026-04-21 18:00 | 23.86446 | 55.48835 | 36155 ft | 476 kts | 8° |
| 2026-04-21 18:00 | 23.89649 | 55.49782 | 35473 ft | 477 kts | 9° |
| 2026-04-21 18:00 | 23.92854 | 55.50731 | 34762 ft | 479 kts | 9° |
| 2026-04-21 18:01 | 23.96079 | 55.51686 | 33990 ft | 482 kts | 10° |
| 2026-04-21 18:01 | 23.99284 | 55.52853 | 33123 ft | 491 kts | 19° |
| 2026-04-21 18:01 | 24.02290 | 55.54677 | 32270 ft | 500 kts | 32° |
| 2026-04-21 18:01 | 24.05034 | 55.57049 | 31411 ft | 505 kts | 37° |
| 2026-04-21 18:02 | 24.07699 | 55.59582 | 30517 ft | 509 kts | 39° |
| 2026-04-21 18:02 | 24.10323 | 55.62188 | 29558 ft | 512 kts | 40° |
| 2026-04-21 18:02 | 24.12951 | 55.64847 | 28664 ft | 512 kts | 41° |
| 2026-04-21 18:02 | 24.15546 | 55.67481 | 28027 ft | 507 kts | 40° |
| 2026-04-21 18:03 | 24.18122 | 55.70084 | 27402 ft | 502 kts | 40° |
| 2026-04-21 18:03 | 24.20683 | 55.72654 | 26765 ft | 497 kts | 40° |
| 2026-04-21 18:03 | 24.23230 | 55.75198 | 26111 ft | 494 kts | 40° |
| 2026-04-21 18:03 | 24.25763 | 55.77719 | 25473 ft | 490 kts | 40° |
| 2026-04-21 18:04 | 24.28281 | 55.80223 | 24835 ft | 487 kts | 39° |
| 2026-04-21 18:04 | 24.30779 | 55.82705 | 24212 ft | 484 kts | 39° |
| 2026-04-21 18:04 | 24.33270 | 55.85181 | 23583 ft | 482 kts | 39° |
| 2026-04-21 18:04 | 24.35742 | 55.87641 | 22885 ft | 479 kts | 39° |
| 2026-04-21 18:05 | 24.38194 | 55.90083 | 22273 ft | 474 kts | 39° |
| 2026-04-21 18:05 | 24.40620 | 55.92505 | 21663 ft | 468 kts | 39° |
| 2026-04-21 18:05 | 24.42985 | 55.94862 | 21092 ft | 463 kts | 39° |
| 2026-04-21 18:05 | 24.45389 | 55.97258 | 20483 ft | 459 kts | 39° |
| 2026-04-21 18:06 | 24.47738 | 55.99601 | 19882 ft | 455 kts | 40° |
| 2026-04-21 18:06 | 24.50041 | 56.01898 | 19279 ft | 450 kts | 40° |
| 2026-04-21 18:06 | 24.52344 | 56.04198 | 18690 ft | 446 kts | 40° |
| 2026-04-21 18:06 | 24.54627 | 56.06481 | 18083 ft | 442 kts | 40° |
| 2026-04-21 18:07 | 24.56889 | 56.08751 | 17428 ft | 437 kts | 40° |
| 2026-04-21 18:07 | 24.59236 | 56.10822 | 16813 ft | 430 kts | 31° |
| 2026-04-21 18:07 | 24.61894 | 56.12234 | 16242 ft | 421 kts | 16° |
| 2026-04-21 18:07 | 24.64694 | 56.13073 | 15791 ft | 412 kts | 9° |
| 2026-04-21 18:08 | 24.67461 | 56.13466 | 14983 ft | 390 kts | 359° |
| 2026-04-21 18:08 | 24.70117 | 56.13226 | 13612 ft | 380 kts | 346° |
| 2026-04-21 18:08 | 24.72580 | 56.12181 | 11687 ft | 383 kts | 326° |
| 2026-04-21 18:08 | 24.74587 | 56.10310 | 10526 ft | 370 kts | 313° |
| 2026-04-21 18:09 | 24.76298 | 56.08391 | 10285 ft | 331 kts | 313° |
| 2026-04-21 18:09 | 24.77829 | 56.06688 | 10193 ft | 297 kts | 313° |
| 2026-04-21 18:09 | 24.79246 | 56.05110 | 10104 ft | 292 kts | 312° |
| 2026-04-21 18:09 | 24.80679 | 56.03506 | 10001 ft | 294 kts | 312° |
| 2026-04-21 18:10 | 24.82120 | 56.01902 | 9867 ft | 295 kts | 313° |
| 2026-04-21 18:10 | 24.83561 | 56.00302 | 9759 ft | 294 kts | 313° |
| 2026-04-21 18:10 | 24.85003 | 55.98701 | 9609 ft | 294 kts | 313° |
| 2026-04-21 18:10 | 24.86440 | 55.97107 | 9354 ft | 293 kts | 313° |
| 2026-04-21 18:11 | 24.87883 | 55.95504 | 9163 ft | 296 kts | 313° |
| 2026-04-21 18:11 | 24.89313 | 55.93916 | 8995 ft | 288 kts | 313° |
| 2026-04-21 18:11 | 24.90702 | 55.92374 | 8763 ft | 280 kts | 313° |
| 2026-04-21 18:11 | 24.92065 | 55.90859 | 8567 ft | 277 kts | 313° |
| 2026-04-21 18:12 | 24.93423 | 55.89348 | 8392 ft | 278 kts | 313° |
| 2026-04-21 18:12 | 24.94783 | 55.87834 | 8128 ft | 279 kts | 313° |
| 2026-04-21 18:12 | 24.96174 | 55.86285 | 7830 ft | 287 kts | 313° |
| 2026-04-21 18:12 | 24.97576 | 55.84725 | 7517 ft | 287 kts | 313° |
| 2026-04-21 18:13 | 24.98978 | 55.83161 | 7186 ft | 285 kts | 313° |
| 2026-04-21 18:13 | 25.00218 | 55.81468 | 6854 ft | 283 kts | 303° |
| 2026-04-21 18:13 | 25.01265 | 55.79642 | 6534 ft | 282 kts | 301° |
| 2026-04-21 18:13 | 25.02283 | 55.77796 | 6204 ft | 281 kts | 301° |
| 2026-04-21 18:14 | 25.04322 | 55.74130 | 5539 ft | 280 kts | 302° |
| 2026-04-21 18:14 | 25.05342 | 55.72296 | 5209 ft | 280 kts | 302° |
| 2026-04-21 18:14 | 25.06360 | 55.70466 | 4884 ft | 280 kts | 302° |
| 2026-04-21 18:15 | 25.07381 | 55.68640 | 4559 ft | 280 kts | 302° |
| 2026-04-21 18:15 | 25.08399 | 55.66817 | 4219 ft | 279 kts | 302° |
| 2026-04-21 18:15 | 25.09413 | 55.64995 | 3913 ft | 276 kts | 302° |
| 2026-04-21 18:15 | 25.10412 | 55.63200 | 3574 ft | 272 kts | 302° |
| 2026-04-21 18:16 | 25.11396 | 55.61440 | 3330 ft | 266 kts | 303° |
| 2026-04-21 18:16 | 25.12363 | 55.59698 | 3228 ft | 266 kts | 303° |
| 2026-04-21 18:16 | 25.13319 | 55.57978 | 3122 ft | 257 kts | 303° |
| 2026-04-21 18:16 | 25.14234 | 55.56331 | 3012 ft | 246 kts | 303° |
| 2026-04-21 18:17 | 25.15093 | 55.54817 | 2992 ft | 219 kts | 303° |
| 2026-04-21 18:17 | 25.15835 | 55.53492 | 3047 ft | 188 kts | 303° |
| 2026-04-21 18:17 | 25.16484 | 55.52323 | 2990 ft | 169 kts | 304° |
| 2026-04-21 18:17 | 25.17070 | 55.51262 | 2987 ft | 158 kts | 304° |
| 2026-04-21 18:18 | 25.17649 | 55.50199 | 2713 ft | 168 kts | 302° |
| 2026-04-21 18:18 | 25.18217 | 55.49035 | 2252 ft | 174 kts | 300° |
| 2026-04-21 18:18 | 25.18779 | 55.47849 | 1904 ft | 169 kts | 302° |
| 2026-04-21 18:18 | 25.19349 | 55.46764 | 1671 ft | 160 kts | 305° |
| 2026-04-21 18:19 | 25.19914 | 55.45734 | 1442 ft | 154 kts | 306° |
| 2026-04-21 18:19 | 25.20516 | 55.44750 | 1187 ft | 155 kts | 308° |
| 2026-04-21 18:19 | 25.21131 | 55.43807 | 933 ft | 154 kts | 308° |
| 2026-04-21 18:19 | 25.21712 | 55.42828 | 710 ft | 149 kts | 303° |
| 2026-04-21 18:20 | 25.22220 | 55.41876 | 559 ft | 140 kts | 306° |
| 2026-04-21 18:20 | 25.22736 | 55.40972 | 397 ft | 140 kts | 302° |
| 2026-04-21 18:20 | 25.23253 | 55.40064 | 224 ft | 140 kts | 304° |
| 2026-04-21 18:20 | 25.23771 | 55.39158 | 94 ft | 138 kts | 303° |
| 2026-04-21 18:21 | 25.24209 | 55.38373 | 52 ft | 93 kts | 302° |
| 2026-04-21 18:21 | 25.24505 | 55.37842 | 48 ft | 71 kts | 301° |
| 2026-04-21 18:21 | 25.24731 | 55.37435 | 39 ft | 54 kts | 302° |
| 2026-04-21 18:21 | 25.24906 | 55.37120 | 38 ft | 45 kts | 301° |
| 2026-04-21 18:22 | 25.25000 | 55.36881 | 34 ft | 31 kts | 281° |
| 2026-04-21 18:22 | 25.25016 | 55.36711 | 28 ft | 19 kts | 270° |
| 2026-04-21 18:22 | 25.25019 | 55.36589 | 28 ft | 17 kts | 272° |
| 2026-04-21 18:22 | 25.25033 | 55.36456 | 29 ft | 18 kts | 284° |
| 2026-04-21 18:23 | 25.25041 | 55.36317 | 27 ft | 18 kts | 239° |
| 2026-04-21 18:23 | 25.24944 | 55.36240 | 27 ft | 6 kts | 211° |
| 2026-04-21 18:23 | 25.24930 | 55.36230 | 27 ft | 0 kts | 211° |